createdAt,value
2018-03-26T00:01:59.579Z,60.17
2018-03-26T00:04:27.166Z,51.70
2018-03-26T00:06:55.523Z,54.80
2018-03-26T00:09:23.111Z,58.80
2018-03-26T00:11:51.464Z,54.42
2018-03-26T00:14:19.047Z,53.33
2018-03-26T00:16:46.628Z,53.00
2018-03-26T00:19:14.983Z,52.25
2018-03-26T00:21:42.576Z,54.75
2018-03-26T00:24:10.931Z,55.80
2018-03-26T00:26:38.519Z,54.88
2018-03-26T00:29:06.878Z,55.35
2018-03-26T00:31:34.465Z,57.60
2018-03-26T00:34:02.818Z,61.75
2018-03-26T00:36:30.407Z,54.80
2018-03-26T00:38:57.994Z,60.90
2018-03-26T00:41:25.583Z,57.30
2018-03-26T00:43:53.179Z,61.22
2018-03-26T00:46:20.810Z,55.30
2018-03-26T00:48:48.410Z,57.22
2018-03-26T00:51:15.998Z,58.03
2018-03-26T00:53:44.505Z,57.25
2018-03-26T00:56:12.087Z,59.00
2018-03-26T00:58:39.675Z,61.10
2018-03-26T01:01:07.298Z,63.97
2018-03-26T01:03:34.915Z,56.95
2018-03-26T01:06:02.505Z,56.53
2018-03-26T01:08:30.088Z,59.75
2018-03-26T01:10:58.443Z,60.08
2018-03-26T01:13:26.036Z,59.17
2018-03-26T01:15:54.391Z,62.25
2018-03-26T01:18:21.976Z,66.07
2018-03-26T01:20:49.570Z,55.78
2018-03-26T01:23:17.156Z,62.20
2018-03-26T01:25:44.748Z,60.55
2018-03-26T01:28:12.335Z,58.92
2018-03-26T01:30:39.923Z,56.10
2018-03-26T01:33:07.502Z,65.85
2018-03-26T01:35:35.090Z,59.83
2018-03-26T01:38:02.680Z,64.57
2018-03-26T01:40:30.267Z,60.80
2018-03-26T01:42:58.618Z,58.95
2018-03-26T01:45:26.221Z,60.58
2018-03-26T01:47:53.855Z,60.50
2018-03-26T01:50:21.463Z,60.08
2018-03-26T01:52:49.048Z,66.50
2018-03-26T01:55:16.635Z,57.53
2018-03-26T01:57:44.220Z,58.10
2018-03-26T02:00:11.803Z,62.72
2018-03-26T02:02:40.154Z,56.55
2018-03-26T02:05:07.735Z,58.35
2018-03-26T02:07:35.327Z,65.57
2018-03-26T02:10:02.958Z,63.22
2018-03-26T02:12:30.600Z,57.70
2018-03-26T02:14:58.218Z,61.47
2018-03-26T02:17:25.867Z,59.88
2018-03-26T02:19:53.475Z,62.58
2018-03-26T02:22:21.063Z,54.08
2018-03-26T02:24:48.649Z,56.90
2018-03-26T02:27:16.239Z,62.55
2018-03-26T02:29:43.834Z,59.63
2018-03-26T02:32:11.451Z,57.50
2018-03-26T02:34:39.804Z,59.92
2018-03-26T02:37:07.407Z,62.15
2018-03-26T02:39:35.758Z,63.53
2018-03-26T02:42:03.356Z,59.80
2018-03-26T02:44:31.708Z,62.83
2018-03-26T02:46:59.292Z,66.82
2018-03-26T02:49:27.643Z,56.50
2018-03-26T02:51:55.243Z,68.15
2018-03-26T02:54:22.835Z,62.03
2018-03-26T02:56:50.433Z,59.35
2018-03-26T02:59:18.043Z,61.75
2018-03-26T03:01:46.405Z,61.85
2018-03-26T03:04:13.991Z,59.35
2018-03-26T03:06:42.371Z,62.10
2018-03-26T03:09:10.715Z,61.33
2018-03-26T03:11:38.299Z,66.10
2018-03-26T03:14:05.926Z,66.03
2018-03-26T03:16:33.511Z,64.18
2018-03-26T03:19:01.091Z,69.15
2018-03-26T03:21:28.687Z,67.12
2018-03-26T03:23:56.279Z,64.85
2018-03-26T03:26:23.867Z,65.95
2018-03-26T03:28:51.448Z,62.10
2018-03-26T03:31:19.040Z,63.65
2018-03-26T03:33:46.637Z,60.75
2018-03-26T03:36:14.271Z,68.12
2018-03-26T03:38:42.618Z,64.35
2018-03-26T03:41:10.207Z,61.63
2018-03-26T03:43:38.562Z,67.20
2018-03-26T03:46:06.151Z,71.43
2018-03-26T03:48:34.502Z,67.90
2018-03-26T03:51:02.091Z,64.68
2018-03-26T03:53:29.715Z,65.68
2018-03-26T03:55:57.299Z,69.72
2018-03-26T03:58:24.890Z,69.30
2018-03-26T04:00:52.478Z,73.68
2018-03-26T04:03:20.831Z,69.68
2018-03-26T04:05:48.427Z,70.30
2018-03-26T04:08:16.015Z,68.22
2018-03-26T04:10:43.606Z,66.35
2018-03-26T04:13:11.194Z,77.12
2018-03-26T04:15:38.791Z,68.28
2018-03-26T04:18:06.382Z,62.90
2018-03-26T04:20:33.968Z,67.12
2018-03-26T04:23:01.551Z,71.60
2018-03-26T04:25:29.138Z,70.22
2018-03-26T04:27:57.487Z,68.43
2018-03-26T04:30:25.075Z,68.43
2018-03-26T04:32:53.422Z,72.18
2018-03-26T04:35:21.068Z,68.22
2018-03-26T04:37:49.383Z,68.22
2018-03-26T04:40:16.987Z,74.62
2018-03-26T04:42:44.577Z,71.28
2018-03-26T04:45:12.211Z,65.22
2018-03-26T04:47:40.564Z,66.28
2018-03-26T04:50:08.163Z,61.65
2018-03-26T04:52:35.752Z,67.40
2018-03-26T04:55:03.367Z,72.00
2018-03-26T04:57:30.954Z,62.70
2018-03-26T04:59:59.334Z,70.00
2018-03-26T05:02:27.687Z,66.60
2018-03-26T05:04:55.276Z,72.43
2018-03-26T05:07:23.631Z,69.90
2018-03-26T05:09:51.264Z,72.40
2018-03-26T05:12:18.843Z,74.78
2018-03-26T05:14:46.486Z,68.90
2018-03-26T05:17:14.111Z,75.78
2018-03-26T05:19:42.468Z,69.60
2018-03-26T05:22:10.058Z,69.97
2018-03-26T05:24:37.651Z,69.93
2018-03-26T05:27:05.231Z,70.00
2018-03-26T05:29:32.823Z,80.62
2018-03-26T05:32:00.408Z,66.85
2018-03-26T05:34:27.990Z,73.00
2018-03-26T05:36:56.338Z,65.05
2018-03-26T05:39:23.930Z,71.30
2018-03-26T05:41:52.282Z,67.97
2018-03-26T05:44:19.867Z,74.65
2018-03-26T05:46:47.455Z,71.18
2018-03-26T05:49:15.044Z,76.72
2018-03-26T05:51:42.632Z,79.28
2018-03-26T05:54:10.227Z,82.12
2018-03-26T05:56:37.829Z,79.10
2018-03-26T05:59:05.475Z,79.47
2018-03-26T06:01:33.827Z,71.20
2018-03-26T06:04:01.420Z,78.82
2018-03-26T06:06:29.776Z,85.65
2018-03-26T06:08:57.408Z,86.20
2018-03-26T06:11:25.480Z,80.12
2018-03-26T06:13:53.072Z,80.57
2018-03-26T06:16:20.667Z,74.25
2018-03-26T06:18:48.282Z,77.18
2018-03-26T06:21:15.947Z,79.43
2018-03-26T06:23:53.470Z,75.80
2018-03-26T06:26:21.073Z,74.07
2018-03-26T06:28:48.683Z,75.00
2018-03-26T06:31:16.304Z,70.18
2018-03-26T06:33:44.703Z,72.35
2018-03-26T06:36:31.975Z,74.97
2018-03-26T06:39:00.503Z,71.45
2018-03-26T06:41:28.097Z,83.37
2018-03-26T06:43:55.711Z,73.95
2018-03-26T06:46:23.346Z,78.82
2018-03-26T06:48:50.932Z,76.35
2018-03-26T06:51:19.290Z,84.03
2018-03-26T06:53:46.878Z,73.22
2018-03-26T06:56:15.275Z,76.35
2018-03-26T06:58:43.628Z,84.97
2018-03-26T07:01:11.223Z,85.70
2018-03-26T07:03:38.802Z,79.43
2018-03-26T07:06:06.398Z,76.35
2018-03-26T07:08:33.979Z,80.62
2018-03-26T07:11:01.583Z,71.93
2018-03-26T07:13:29.935Z,79.12
2018-03-26T07:15:57.523Z,82.07
2018-03-26T07:18:25.870Z,82.72
2018-03-26T07:20:53.450Z,78.93
2018-03-26T07:23:21.035Z,77.18
2018-03-26T07:25:49.386Z,86.20
2018-03-26T07:28:16.966Z,82.68
2018-03-26T07:30:44.549Z,84.22
2018-03-26T07:33:12.906Z,77.45
2018-03-26T07:35:40.495Z,81.97
2018-03-26T07:38:08.899Z,86.93
2018-03-26T07:40:36.486Z,76.47
2018-03-26T07:43:04.074Z,79.43
2018-03-26T07:45:31.659Z,83.25
2018-03-26T07:48:00.011Z,86.32
2018-03-26T07:50:27.594Z,95.35
2018-03-26T07:52:55.178Z,90.80
2018-03-26T07:55:23.528Z,94.62
2018-03-26T07:57:51.107Z,78.85
2018-03-26T08:00:18.774Z,86.82
2018-03-26T08:02:46.418Z,83.03
2018-03-26T08:05:14.019Z,86.10
2018-03-26T08:07:42.410Z,90.32
2018-03-26T08:10:10.759Z,81.30
2018-03-26T08:12:38.361Z,91.70
2018-03-26T08:15:05.988Z,87.57
2018-03-26T08:17:33.566Z,90.72
2018-03-26T08:20:01.151Z,85.80
2018-03-26T08:22:29.515Z,79.97
2018-03-26T08:24:57.104Z,82.05
2018-03-26T08:27:25.466Z,87.50
2018-03-26T08:29:53.050Z,87.32
2018-03-26T08:32:20.659Z,96.03
2018-03-26T08:34:48.250Z,84.90
2018-03-26T08:37:15.851Z,85.80
2018-03-26T08:39:43.439Z,88.10
2018-03-26T08:42:11.096Z,85.15
2018-03-26T08:44:39.430Z,91.12
2018-03-26T08:47:07.015Z,93.10
2018-03-26T08:49:35.371Z,88.25
2018-03-26T08:52:03.003Z,87.10
2018-03-26T08:54:30.582Z,88.55
2018-03-26T08:56:58.163Z,95.50
2018-03-26T08:59:25.812Z,90.45
2018-03-26T09:01:53.398Z,94.60
2018-03-26T09:04:20.982Z,96.75
2018-03-26T09:06:48.570Z,90.70
2018-03-26T09:09:16.159Z,84.75
2018-03-26T09:11:43.788Z,87.95
2018-03-26T09:14:12.139Z,92.35
2018-03-26T09:16:39.735Z,89.37
2018-03-26T09:19:07.331Z,81.28
2018-03-26T09:21:34.955Z,84.18
2018-03-26T09:24:03.407Z,89.55
2018-03-26T09:26:30.994Z,86.03
2018-03-26T09:28:58.599Z,79.93
2018-03-26T09:31:26.791Z,87.30
2018-03-26T09:33:54.370Z,85.97
2018-03-26T09:36:21.950Z,103.43
2018-03-26T09:38:49.530Z,103.60
2018-03-26T09:41:17.109Z,92.32
2018-03-26T09:43:45.455Z,99.07
2018-03-26T09:46:13.068Z,88.03
2018-03-26T09:48:40.660Z,91.10
2018-03-26T09:51:08.294Z,100.72
2018-03-26T09:53:36.646Z,99.28
2018-03-26T09:56:04.240Z,94.50
2018-03-26T09:58:32.596Z,100.38
2018-03-26T10:01:02.112Z,94.57
2018-03-26T10:03:29.741Z,96.25
2018-03-26T10:05:57.327Z,93.03
2018-03-26T10:08:24.919Z,97.32
2018-03-26T10:10:53.275Z,105.43
2018-03-26T10:13:21.104Z,89.28
2018-03-26T10:15:49.021Z,94.90
2018-03-26T10:18:19.602Z,97.85
2018-03-26T10:20:52.030Z,84.65
2018-03-26T10:23:19.972Z,99.05
2018-03-26T10:26:02.023Z,89.85
2018-03-26T10:28:32.806Z,87.45
2018-03-26T10:31:01.898Z,85.95
2018-03-26T10:33:30.261Z,93.20
2018-03-26T10:36:05.735Z,92.12
2018-03-26T10:38:35.714Z,87.30
2018-03-26T10:41:04.650Z,98.22
2018-03-26T10:43:32.593Z,91.90
2018-03-26T10:46:00.341Z,94.68
2018-03-26T10:48:28.760Z,89.00
2018-03-26T10:50:56.343Z,91.87
2018-03-26T10:53:23.927Z,90.12
2018-03-26T10:55:52.931Z,81.50
2018-03-26T10:58:21.753Z,85.93
2018-03-26T11:00:54.537Z,88.00
2018-03-26T11:03:24.471Z,98.62
2018-03-26T11:05:55.568Z,89.45
2018-03-26T11:08:26.005Z,94.95
2018-03-26T11:11:17.139Z,89.47
2018-03-26T11:13:44.963Z,83.12
2018-03-26T11:16:12.542Z,97.30
2018-03-26T11:18:40.130Z,99.32
2018-03-26T11:21:08.474Z,97.25
2018-03-26T11:23:36.059Z,88.55
2018-03-26T11:26:03.659Z,89.62
2018-03-26T11:28:31.282Z,100.20
2018-03-26T11:30:58.947Z,98.97
2018-03-26T11:33:26.558Z,94.00
2018-03-26T11:35:54.142Z,88.93
2018-03-26T11:38:21.754Z,94.62
2018-03-26T11:40:50.985Z,86.93
2018-03-26T11:43:18.584Z,88.28
2018-03-26T11:45:46.179Z,83.43
2018-03-26T11:48:13.775Z,89.03
2018-03-26T11:50:41.366Z,92.80
2018-03-26T11:53:08.946Z,85.93
2018-03-26T11:55:36.591Z,92.43
2018-03-26T11:58:04.223Z,98.20
2018-03-26T12:00:32.583Z,94.25
2018-03-26T12:03:00.183Z,93.95
2018-03-26T12:05:27.769Z,86.00
2018-03-26T12:07:55.363Z,84.87
2018-03-26T12:10:22.947Z,95.68
2018-03-26T12:12:50.531Z,82.88
2018-03-26T12:15:18.882Z,77.57
2018-03-26T12:17:46.475Z,82.05
2018-03-26T12:20:26.750Z,86.80
2018-03-26T12:22:54.339Z,73.53
2018-03-26T12:25:21.989Z,79.82
2018-03-26T12:28:01.420Z,79.93
2018-03-26T12:30:29.023Z,86.00
2018-03-26T12:32:56.664Z,79.47
2018-03-26T12:35:36.211Z,57.50
2018-03-26T12:38:03.863Z,61.35
2018-03-26T12:40:43.166Z,61.20
2018-03-26T12:43:11.566Z,64.03
2018-03-26T12:45:50.915Z,71.12
2018-03-26T12:48:18.511Z,102.95
2018-03-26T12:50:58.030Z,64.97
2018-03-26T12:53:25.619Z,64.80
2018-03-26T12:55:53.207Z,55.45
2018-03-26T12:58:33.380Z,58.63
2018-03-26T13:01:12.852Z,62.13
2018-03-26T13:03:40.451Z,52.38
2018-03-26T13:06:08.802Z,53.75
2018-03-26T13:08:36.480Z,48.03
2018-03-26T13:11:04.075Z,49.15
2018-03-26T13:13:32.434Z,51.53
2018-03-26T13:16:00.019Z,48.40
2018-03-26T13:18:28.411Z,53.65
2018-03-26T13:20:56.763Z,47.40
2018-03-26T13:23:24.360Z,50.80
2018-03-26T13:25:51.955Z,69.82
2018-03-26T13:28:19.534Z,62.42
2018-03-26T13:30:47.253Z,58.65
2018-03-26T13:33:14.891Z,58.97
2018-03-26T13:35:42.479Z,58.35
2018-03-26T13:38:10.828Z,58.20
2018-03-26T13:40:38.413Z,66.68
2018-03-26T13:43:05.994Z,68.62
2018-03-26T13:45:34.392Z,69.05
2018-03-26T13:48:01.980Z,102.43
2018-03-26T13:50:29.627Z,75.15
2018-03-26T13:52:57.235Z,71.85
2018-03-26T13:55:24.823Z,72.15
2018-03-26T13:57:53.184Z,73.85
2018-03-26T14:00:20.784Z,72.70
2018-03-26T14:02:49.134Z,71.80
2018-03-26T14:05:16.719Z,66.43
2018-03-26T14:07:45.085Z,73.18
2018-03-26T14:10:24.583Z,84.90
2018-03-26T14:13:04.023Z,67.00
2018-03-26T14:15:43.610Z,67.55
2018-03-26T14:18:11.984Z,66.62
2018-03-26T14:20:40.356Z,68.22
2018-03-26T14:23:07.947Z,66.78
2018-03-26T14:25:36.494Z,71.35
2018-03-26T14:28:04.108Z,67.28
2018-03-26T14:30:32.467Z,68.78
2018-03-26T14:33:00.056Z,63.83
2018-03-26T14:35:43.314Z,73.05
2018-03-26T14:38:11.678Z,89.10
2018-03-26T14:40:39.271Z,65.07
2018-03-26T14:43:07.820Z,68.68
2018-03-26T14:45:36.151Z,67.35
2018-03-26T14:48:03.761Z,67.87
2018-03-26T14:50:31.359Z,68.20
2018-03-26T14:52:58.998Z,67.22
2018-03-26T14:55:26.589Z,76.82
2018-03-26T14:57:54.180Z,67.60
2018-03-26T15:00:21.780Z,79.47
2018-03-26T15:02:50.198Z,72.47
2018-03-26T15:05:18.516Z,70.00
2018-03-26T15:07:46.102Z,67.75
2018-03-26T15:10:14.459Z,70.43
2018-03-26T15:12:42.838Z,64.90
2018-03-26T15:15:10.434Z,71.32
2018-03-26T15:17:38.787Z,66.05
2018-03-26T15:20:06.388Z,75.15
2018-03-26T15:22:33.973Z,64.07
2018-03-26T15:25:01.612Z,61.28
2018-03-26T15:27:30.006Z,63.30
2018-03-26T15:29:58.390Z,62.25
2018-03-26T15:32:26.022Z,62.33
2018-03-26T15:34:53.602Z,61.72
2018-03-26T15:37:21.982Z,60.92
2018-03-26T15:39:49.580Z,71.68
2018-03-26T15:42:17.231Z,65.43
2018-03-26T15:44:44.825Z,70.07
2018-03-26T15:47:12.423Z,63.28
2018-03-26T15:49:40.011Z,71.90
2018-03-26T15:52:08.359Z,64.93
2018-03-26T15:54:36.001Z,73.85
2018-03-26T15:57:03.613Z,74.95
2018-03-26T15:59:31.226Z,81.95
2018-03-26T16:01:58.367Z,66.03
2018-03-26T16:04:25.978Z,76.20
2018-03-26T16:06:53.630Z,86.85
2018-03-26T16:09:21.251Z,81.93
2018-03-26T16:11:49.608Z,86.28
2018-03-26T16:14:17.265Z,87.80
2018-03-26T16:16:44.861Z,86.05
2018-03-26T16:19:13.219Z,82.80
2018-03-26T16:21:40.812Z,94.35
2018-03-26T16:24:09.168Z,78.90
2018-03-26T16:26:36.767Z,73.87
2018-03-26T16:29:04.382Z,69.80
2018-03-26T16:31:32.012Z,71.30
2018-03-26T16:33:59.616Z,70.30
2018-03-26T16:36:27.198Z,79.20
2018-03-26T16:38:54.819Z,77.05
2018-03-26T16:41:34.237Z,83.53
2018-03-26T16:44:01.820Z,79.53
2018-03-26T16:46:29.407Z,73.37
2018-03-26T16:48:57.040Z,87.35
2018-03-26T16:51:24.622Z,92.95
2018-03-26T16:53:52.239Z,91.53
2018-03-26T16:56:20.596Z,87.65
2018-03-26T16:58:49.179Z,78.72
2018-03-26T17:01:17.788Z,98.28
2018-03-26T17:03:45.456Z,86.82
2018-03-26T17:06:13.040Z,85.93
2018-03-26T17:08:41.396Z,128.48
2018-03-26T17:11:09.056Z,150.15
2018-03-26T17:13:36.671Z,332.87
2018-03-26T17:16:04.306Z,104.85
2018-03-26T17:18:31.921Z,227.87
2018-03-26T17:20:59.584Z,211.98
2018-03-26T17:23:27.197Z,172.68
2018-03-26T17:25:54.791Z,237.57
2018-03-26T17:28:22.382Z,157.85
2018-03-26T17:30:49.976Z,245.50
2018-03-26T17:33:17.568Z,154.75
2018-03-26T17:35:45.933Z,121.37
2018-03-26T17:38:13.528Z,90.57
2018-03-26T17:40:41.124Z,73.07
2018-03-26T17:43:08.715Z,82.10
2018-03-26T17:45:36.323Z,94.40
2018-03-26T17:48:03.985Z,77.40
2018-03-26T17:50:32.339Z,75.05
2018-03-26T17:52:59.931Z,82.70
2018-03-26T17:55:28.319Z,100.70
2018-03-26T17:57:55.923Z,80.28
2018-03-26T18:00:23.511Z,88.43
2018-03-26T18:02:51.106Z,72.70
2018-03-26T18:05:19.595Z,80.70
2018-03-26T18:07:47.955Z,81.28
2018-03-26T18:10:16.420Z,77.53
2018-03-26T18:12:44.016Z,84.20
2018-03-26T18:15:12.365Z,74.35
2018-03-26T18:17:39.950Z,71.70
2018-03-26T18:20:07.564Z,70.35
2018-03-26T18:22:35.542Z,73.85
2018-03-26T18:25:03.683Z,73.28
2018-03-26T18:27:31.351Z,90.50
2018-03-26T18:29:59.712Z,69.25
2018-03-26T18:32:27.315Z,52.83
2018-03-26T18:34:54.903Z,64.43
2018-03-26T18:37:22.500Z,49.65
2018-03-26T18:39:50.097Z,61.00
2018-03-26T18:42:18.488Z,53.85
2018-03-26T18:44:46.083Z,75.55
2018-03-26T18:47:13.771Z,57.38
2018-03-26T18:49:41.350Z,54.00
2018-03-26T18:52:08.977Z,51.15
2018-03-26T18:54:36.572Z,61.33
2018-03-26T18:57:04.213Z,68.22
2018-03-26T18:59:31.779Z,56.00
2018-03-26T19:02:00.103Z,52.70
2018-03-26T19:04:28.463Z,66.30
2018-03-26T19:06:56.074Z,58.80
2018-03-26T19:09:23.687Z,152.40
2018-03-26T19:11:51.275Z,87.45
2018-03-26T19:14:18.867Z,85.22
2018-03-26T19:16:46.933Z,65.45
2018-03-26T19:19:14.547Z,83.28
2018-03-26T19:21:42.178Z,100.82
2018-03-26T19:24:10.155Z,79.80
2018-03-26T19:26:37.743Z,83.10
2018-03-26T19:29:05.368Z,88.97
2018-03-26T19:31:33.750Z,96.53
2018-03-26T19:34:02.102Z,110.47
2018-03-26T19:36:29.691Z,102.15
2018-03-26T19:38:58.044Z,90.62
2018-03-26T19:41:26.090Z,86.43
2018-03-26T19:43:53.708Z,78.20
2018-03-26T19:46:21.307Z,95.60
2018-03-26T19:48:48.935Z,86.55
2018-03-26T19:51:16.531Z,102.70
2018-03-26T19:53:44.176Z,86.93
2018-03-26T19:56:12.534Z,88.18
2018-03-26T19:58:40.156Z,100.85
2018-03-26T20:01:07.816Z,90.18
2018-03-26T20:03:35.443Z,88.90
2018-03-26T20:06:03.029Z,90.55
2018-03-26T20:08:31.378Z,101.50
2018-03-26T20:10:58.970Z,84.22
2018-03-26T20:13:27.395Z,98.47
2018-03-26T20:15:54.968Z,105.43
2018-03-26T20:18:22.546Z,92.20
2018-03-26T20:20:50.135Z,91.37
2018-03-26T20:23:17.746Z,107.80
2018-03-26T20:25:45.336Z,119.60
2018-03-26T20:28:12.943Z,91.32
2018-03-26T20:30:41.508Z,108.22
2018-03-26T20:33:09.096Z,126.40
2018-03-26T20:35:36.687Z,134.50
2018-03-26T20:38:04.283Z,104.78
2018-03-26T20:40:31.881Z,142.20
2018-03-26T20:43:00.235Z,126.12
2018-03-26T20:45:27.828Z,104.97
2018-03-26T20:47:56.186Z,110.30
2018-03-26T20:50:23.795Z,102.22
2018-03-26T20:52:51.386Z,100.15
2018-03-26T20:55:18.988Z,105.57
2018-03-26T20:57:46.570Z,97.32
2018-03-26T21:00:14.934Z,110.40
2018-03-26T21:02:42.556Z,108.63
2018-03-26T21:05:10.147Z,117.93
2018-03-26T21:07:37.798Z,103.53
2018-03-26T21:10:05.391Z,105.10
2018-03-26T21:12:33.791Z,108.90
2018-03-26T21:15:01.383Z,101.32
2018-03-26T21:17:28.976Z,97.82
2018-03-26T21:19:56.562Z,97.40
2018-03-26T21:22:24.237Z,110.18
2018-03-26T21:24:51.822Z,106.18
2018-03-26T21:27:19.412Z,114.25
2018-03-26T21:29:47.007Z,114.32
2018-03-26T21:32:14.600Z,109.12
2018-03-26T21:34:42.189Z,106.78
2018-03-26T21:37:09.778Z,116.72
2018-03-26T21:39:37.398Z,112.97
2018-03-26T21:42:05.007Z,112.93
2018-03-26T21:44:32.602Z,124.38
2018-03-26T21:47:00.190Z,121.80
2018-03-26T21:49:27.787Z,101.82
2018-03-26T21:51:56.171Z,98.97
2018-03-26T21:54:24.538Z,96.00
2018-03-26T21:56:53.070Z,103.30
2018-03-26T21:59:20.763Z,104.28
2018-03-26T22:01:48.359Z,113.25
2018-03-26T22:04:16.776Z,90.53
2018-03-26T22:06:44.367Z,104.97
2018-03-26T22:09:11.964Z,106.82
2018-03-26T22:11:39.571Z,121.40
2018-03-26T22:14:07.207Z,144.45
2018-03-26T22:16:35.567Z,141.55
2018-03-26T22:19:03.175Z,130.98
2018-03-26T22:21:30.762Z,94.47
2018-03-26T22:23:58.351Z,114.93
2018-03-26T22:26:25.959Z,122.18
2018-03-26T22:28:54.396Z,124.50
2018-03-26T22:31:21.998Z,105.07
2018-03-26T22:33:50.503Z,85.12
2018-03-26T22:36:18.112Z,110.82
2018-03-26T22:38:45.720Z,81.30
2018-03-26T22:41:14.107Z,74.75
2018-03-26T22:43:42.492Z,72.95
2018-03-26T22:46:10.127Z,78.05
2018-03-26T22:48:37.724Z,81.70
2018-03-26T22:51:06.435Z,84.28
2018-03-26T22:53:34.121Z,80.45
2018-03-26T22:56:01.818Z,81.50
2018-03-26T22:58:29.416Z,78.97
2018-03-26T23:00:57.009Z,86.37
2018-03-26T23:03:24.675Z,81.22
2018-03-26T23:05:52.279Z,72.22
2018-03-26T23:08:20.791Z,81.80
2018-03-26T23:10:48.448Z,82.50
2018-03-26T23:13:16.264Z,80.82
2018-03-26T23:15:43.911Z,88.80
2018-03-26T23:18:11.623Z,69.50
2018-03-26T23:20:39.208Z,73.90
2018-03-26T23:23:07.235Z,82.82
2018-03-26T23:25:34.855Z,84.95
2018-03-26T23:28:03.219Z,108.28
2018-03-26T23:30:30.848Z,110.22
2018-03-26T23:32:58.459Z,95.87
2018-03-26T23:35:26.124Z,90.45
2018-03-26T23:37:53.715Z,77.35
2018-03-26T23:40:21.412Z,84.03
2018-03-26T23:42:49.110Z,77.53
2018-03-26T23:45:16.752Z,100.28
2018-03-26T23:47:44.414Z,87.40
2018-03-26T23:50:12.051Z,94.03
2018-03-26T23:52:39.659Z,84.65
2018-03-26T23:55:07.262Z,91.25
2018-03-26T23:57:34.887Z,89.82
